sensor_id;sensor_type;location;lat;lon;timestamp;pressure;altitude;pressure_sealevel;temperature;humidity
21547;BME280;41275;51.912;4.388;2023-08-21T00:03:15;102328.53;;;26.81;44.62
21547;BME280;41275;51.912;4.388;2023-08-21T00:08:36;102319.97;;;26.88;44.54
21547;BME280;41275;51.912;4.388;2023-08-21T00:13:57;102337.38;;;26.87;44.45
21547;BME280;41275;51.912;4.388;2023-08-21T00:19:18;102331.34;;;26.90;44.43
21547;BME280;41275;51.912;4.388;2023-08-21T00:24:40;102332.16;;;26.90;44.64
21547;BME280;41275;51.912;4.388;2023-08-21T00:30:01;102338.13;;;26.92;44.56
21547;BME280;41275;51.912;4.388;2023-08-21T00:35:22;102322.19;;;27.00;44.36
21547;BME280;41275;51.912;4.388;2023-08-21T00:40:44;102317.06;;;26.98;44.37
21547;BME280;41275;51.912;4.388;2023-08-21T00:46:05;102311.03;;;27.01;44.32
21547;BME280;41275;51.912;4.388;2023-08-21T00:51:26;102313.75;;;27.01;44.27
21547;BME280;41275;51.912;4.388;2023-08-21T00:56:48;102311.44;;;26.95;44.48
21547;BME280;41275;51.912;4.388;2023-08-21T01:02:10;102314.53;;;26.88;44.57
21547;BME280;41275;51.912;4.388;2023-08-21T01:07:42;102318.78;;;26.80;44.65
21547;BME280;41275;51.912;4.388;2023-08-21T01:13:19;102318.69;;;26.85;44.73
21547;BME280;41275;51.912;4.388;2023-08-21T01:18:44;102321.41;;;26.85;44.82
21547;BME280;41275;51.912;4.388;2023-08-21T01:24:06;102320.38;;;26.95;44.50
21547;BME280;41275;51.912;4.388;2023-08-21T01:29:27;102334.66;;;26.87;44.68
21547;BME280;41275;51.912;4.388;2023-08-21T01:34:50;102326.53;;;26.73;45.18
21547;BME280;41275;51.912;4.388;2023-08-21T01:40:12;102331.94;;;26.73;45.11
21547;BME280;41275;51.912;4.388;2023-08-21T01:45:40;102334.34;;;26.61;45.60
21547;BME280;41275;51.912;4.388;2023-08-21T01:51:01;102332.38;;;26.48;45.82
21547;BME280;41275;51.912;4.388;2023-08-21T01:56:23;102323.38;;;26.33;46.24
21547;BME280;41275;51.912;4.388;2023-08-21T02:01:44;102324.56;;;26.27;46.07
21547;BME280;41275;51.912;4.388;2023-08-21T02:07:06;102337.19;;;26.18;46.45
21547;BME280;41275;51.912;4.388;2023-08-21T02:12:28;102328.41;;;26.07;46.26
21547;BME280;41275;51.912;4.388;2023-08-21T02:17:49;102324.44;;;26.00;46.63
21547;BME280;41275;51.912;4.388;2023-08-21T02:23:10;102325.59;;;25.93;46.75
21547;BME280;41275;51.912;4.388;2023-08-21T02:28:32;102327.91;;;25.86;46.44
21547;BME280;41275;51.912;4.388;2023-08-21T02:33:53;102323.94;;;25.79;46.56
21547;BME280;41275;51.912;4.388;2023-08-21T02:39:14;102323.97;;;25.74;46.91
21547;BME280;41275;51.912;4.388;2023-08-21T02:44:35;102322.34;;;25.73;46.88
21547;BME280;41275;51.912;4.388;2023-08-21T02:49:56;102317.59;;;25.64;46.49
21547;BME280;41275;51.912;4.388;2023-08-21T02:55:18;102318.97;;;25.62;46.90
21547;BME280;41275;51.912;4.388;2023-08-21T03:00:39;102314.16;;;25.59;46.74
21547;BME280;41275;51.912;4.388;2023-08-21T03:06:01;102321.25;;;25.55;46.68
21547;BME280;41275;51.912;4.388;2023-08-21T03:11:22;102322.41;;;25.49;46.83
21547;BME280;41275;51.912;4.388;2023-08-21T03:16:43;102312.22;;;25.40;47.05
21547;BME280;41275;51.912;4.388;2023-08-21T03:22:05;102307.94;;;25.34;47.27
21547;BME280;41275;51.912;4.388;2023-08-21T03:27:26;102306.56;;;25.37;46.97
21547;BME280;41275;51.912;4.388;2023-08-21T03:32:47;102309.84;;;25.34;47.21
21547;BME280;41275;51.912;4.388;2023-08-21T03:38:08;102318.34;;;25.27;47.42
21547;BME280;41275;51.912;4.388;2023-08-21T03:43:29;102314.88;;;25.21;47.31
21547;BME280;41275;51.912;4.388;2023-08-21T03:48:51;102313.66;;;25.09;47.71
21547;BME280;41275;51.912;4.388;2023-08-21T03:54:13;102310.78;;;25.00;48.11
21547;BME280;41275;51.912;4.388;2023-08-21T03:59:34;102309.91;;;25.05;47.94
21547;BME280;41275;51.912;4.388;2023-08-21T04:04:55;102319.13;;;25.04;48.12
21547;BME280;41275;51.912;4.388;2023-08-21T04:10:16;102308.81;;;25.06;48.34
21547;BME280;41275;51.912;4.388;2023-08-21T04:15:38;102310.94;;;25.09;48.14
21547;BME280;41275;51.912;4.388;2023-08-21T04:20:59;102319.03;;;25.14;48.08
21547;BME280;41275;51.912;4.388;2023-08-21T04:26:20;102318.81;;;25.10;48.12
21547;BME280;41275;51.912;4.388;2023-08-21T04:31:41;102320.66;;;25.15;48.35
21547;BME280;41275;51.912;4.388;2023-08-21T04:37:03;102325.56;;;25.13;48.44
21547;BME280;41275;51.912;4.388;2023-08-21T04:42:25;102320.97;;;25.08;48.36
21547;BME280;41275;51.912;4.388;2023-08-21T04:47:46;102318.28;;;25.08;48.55
21547;BME280;41275;51.912;4.388;2023-08-21T04:53:07;102323.34;;;25.15;48.51
21547;BME280;41275;51.912;4.388;2023-08-21T04:58:29;102329.00;;;25.18;48.35
21547;BME280;41275;51.912;4.388;2023-08-21T05:03:51;102327.41;;;25.17;48.66
21547;BME280;41275;51.912;4.388;2023-08-21T05:09:12;102326.59;;;25.17;48.65
21547;BME280;41275;51.912;4.388;2023-08-21T05:14:33;102323.34;;;25.15;49.07
21547;BME280;41275;51.912;4.388;2023-08-21T05:19:55;102338.75;;;25.19;49.13
21547;BME280;41275;51.912;4.388;2023-08-21T05:25:16;102329.47;;;25.26;49.36
21547;BME280;41275;51.912;4.388;2023-08-21T05:30:37;102337.72;;;25.39;49.54
21547;BME280;41275;51.912;4.388;2023-08-21T05:35:59;102341.63;;;25.52;49.97
21547;BME280;41275;51.912;4.388;2023-08-21T05:41:20;102341.28;;;25.59;50.30
21547;BME280;41275;51.912;4.388;2023-08-21T05:46:42;102342.28;;;25.63;50.89
21547;BME280;41275;51.912;4.388;2023-08-21T05:52:03;102347.56;;;25.73;51.07
21547;BME280;41275;51.912;4.388;2023-08-21T05:57:27;102347.53;;;25.78;51.39
21547;BME280;41275;51.912;4.388;2023-08-21T06:02:51;102347.91;;;25.90;51.26
21547;BME280;41275;51.912;4.388;2023-08-21T06:08:13;102346.59;;;26.07;51.25
21547;BME280;41275;51.912;4.388;2023-08-21T06:13:34;102351.34;;;26.15;51.17
21547;BME280;41275;51.912;4.388;2023-08-21T06:18:55;102350.53;;;26.33;51.08
21547;BME280;41275;51.912;4.388;2023-08-21T06:24:17;102352.03;;;26.39;51.00
21547;BME280;41275;51.912;4.388;2023-08-21T06:29:38;102358.13;;;26.50;50.81
21547;BME280;41275;51.912;4.388;2023-08-21T06:35:01;102361.88;;;26.68;50.51
21547;BME280;41275;51.912;4.388;2023-08-21T06:40:22;102360.19;;;26.72;50.87
21547;BME280;41275;51.912;4.388;2023-08-21T06:45:43;102362.56;;;26.92;50.44
21547;BME280;41275;51.912;4.388;2023-08-21T06:51:05;102362.88;;;27.05;50.33
21547;BME280;41275;51.912;4.388;2023-08-21T06:56:26;102367.41;;;27.23;49.99
21547;BME280;41275;51.912;4.388;2023-08-21T07:01:48;102372.97;;;27.18;49.81
21547;BME280;41275;51.912;4.388;2023-08-21T07:07:09;102378.41;;;27.18;49.40
21547;BME280;41275;51.912;4.388;2023-08-21T07:12:30;102373.38;;;27.25;49.36
21547;BME280;41275;51.912;4.388;2023-08-21T07:17:51;102377.22;;;27.24;49.17
21547;BME280;41275;51.912;4.388;2023-08-21T07:23:13;102381.34;;;27.35;48.74
21547;BME280;41275;51.912;4.388;2023-08-21T07:28:34;102391.06;;;27.50;48.48
21547;BME280;41275;51.912;4.388;2023-08-21T07:33:55;102394.59;;;27.64;48.30
21547;BME280;41275;51.912;4.388;2023-08-21T07:39:17;102387.94;;;27.71;48.20
21547;BME280;41275;51.912;4.388;2023-08-21T07:44:39;102398.22;;;27.87;48.24
21547;BME280;41275;51.912;4.388;2023-08-21T07:50:00;102397.34;;;28.14;47.90
21547;BME280;41275;51.912;4.388;2023-08-21T07:55:22;102401.50;;;28.34;47.15
21547;BME280;41275;51.912;4.388;2023-08-21T08:00:43;102412.69;;;28.33;47.55
21547;BME280;41275;51.912;4.388;2023-08-21T08:06:04;102399.91;;;28.56;47.34
21547;BME280;41275;51.912;4.388;2023-08-21T08:11:26;102393.41;;;28.66;46.64
21547;BME280;41275;51.912;4.388;2023-08-21T08:16:47;102401.00;;;28.77;46.39
21547;BME280;41275;51.912;4.388;2023-08-21T08:22:08;102399.72;;;29.06;45.26
21547;BME280;41275;51.912;4.388;2023-08-21T08:27:29;102402.50;;;29.15;44.97
21547;BME280;41275;51.912;4.388;2023-08-21T08:32:51;102396.69;;;29.56;44.82
21547;BME280;41275;51.912;4.388;2023-08-21T08:38:12;102393.84;;;29.61;44.08
21547;BME280;41275;51.912;4.388;2023-08-21T08:43:34;102382.31;;;29.81;43.36
21547;BME280;41275;51.912;4.388;2023-08-21T08:48:58;102393.72;;;29.92;42.97
21547;BME280;41275;51.912;4.388;2023-08-21T08:54:22;102388.59;;;29.99;42.67
21547;BME280;41275;51.912;4.388;2023-08-21T08:59:43;102395.34;;;30.11;42.66
21547;BME280;41275;51.912;4.388;2023-08-21T09:05:04;102398.19;;;30.14;42.29
21547;BME280;41275;51.912;4.388;2023-08-21T09:10:26;102388.91;;;30.32;41.93
21547;BME280;41275;51.912;4.388;2023-08-21T09:15:53;102397.41;;;30.48;41.32
21547;BME280;41275;51.912;4.388;2023-08-21T09:21:20;102386.81;;;30.47;40.35
21547;BME280;41275;51.912;4.388;2023-08-21T09:26:41;102396.91;;;30.55;39.95
21547;BME280;41275;51.912;4.388;2023-08-21T09:32:02;102387.38;;;30.87;39.35
21547;BME280;41275;51.912;4.388;2023-08-21T09:37:28;102388.06;;;31.14;38.65
21547;BME280;41275;51.912;4.388;2023-08-21T09:42:53;102387.16;;;31.39;37.85
21547;BME280;41275;51.912;4.388;2023-08-21T09:48:15;102383.66;;;31.30;38.13
21547;BME280;41275;51.912;4.388;2023-08-21T09:53:37;102384.09;;;31.41;37.68
21547;BME280;41275;51.912;4.388;2023-08-21T09:58:58;102369.28;;;31.63;36.96
21547;BME280;41275;51.912;4.388;2023-08-21T10:04:22;102395.66;;;31.67;36.58
21547;BME280;41275;51.912;4.388;2023-08-21T10:09:44;102395.28;;;31.77;36.22
21547;BME280;41275;51.912;4.388;2023-08-21T10:15:07;102394.03;;;31.45;36.63
21547;BME280;41275;51.912;4.388;2023-08-21T10:20:30;102390.88;;;31.64;36.20
21547;BME280;41275;51.912;4.388;2023-08-21T10:26:10;102390.72;;;31.61;35.79
21547;BME280;41275;51.912;4.388;2023-08-21T10:31:40;102378.38;;;31.54;35.79
21547;BME280;41275;51.912;4.388;2023-08-21T10:37:08;102368.56;;;31.53;35.79
21547;BME280;41275;51.912;4.388;2023-08-21T10:42:38;102381.66;;;31.69;36.01
21547;BME280;41275;51.912;4.388;2023-08-21T10:48:00;102381.38;;;31.91;35.81
21547;BME280;41275;51.912;4.388;2023-08-21T10:53:23;102374.78;;;31.84;34.74
21547;BME280;41275;51.912;4.388;2023-08-21T10:58:45;102375.41;;;31.89;33.86
21547;BME280;41275;51.912;4.388;2023-08-21T11:04:12;102372.94;;;31.75;34.13
21547;BME280;41275;51.912;4.388;2023-08-21T11:09:36;102376.13;;;31.77;34.08
21547;BME280;41275;51.912;4.388;2023-08-21T11:14:57;102384.22;;;31.95;33.73
21547;BME280;41275;51.912;4.388;2023-08-21T11:20:18;102369.66;;;32.03;33.62
21547;BME280;41275;51.912;4.388;2023-08-21T11:25:40;102378.38;;;32.17;33.69
21547;BME280;41275;51.912;4.388;2023-08-21T11:31:01;102375.91;;;32.24;33.52
21547;BME280;41275;51.912;4.388;2023-08-21T11:36:22;102379.22;;;31.97;33.58
21547;BME280;41275;51.912;4.388;2023-08-21T11:41:56;102365.19;;;31.98;33.53
21547;BME280;41275;51.912;4.388;2023-08-21T11:47:20;102369.72;;;32.15;33.21
21547;BME280;41275;51.912;4.388;2023-08-21T11:52:42;102367.03;;;32.28;33.37
21547;BME280;41275;51.912;4.388;2023-08-21T11:58:03;102368.13;;;32.26;32.65
21547;BME280;41275;51.912;4.388;2023-08-21T12:03:25;102367.22;;;32.43;32.12
21547;BME280;41275;51.912;4.388;2023-08-21T12:08:46;102367.78;;;32.49;32.13
21547;BME280;41275;51.912;4.388;2023-08-21T12:14:08;102348.03;;;32.43;31.95
21547;BME280;41275;51.912;4.388;2023-08-21T12:19:29;102345.97;;;32.53;31.61
21547;BME280;41275;51.912;4.388;2023-08-21T12:24:50;102361.88;;;32.59;32.36
21547;BME280;41275;51.912;4.388;2023-08-21T12:30:11;102368.09;;;33.54;31.04
21547;BME280;41275;51.912;4.388;2023-08-21T12:35:33;102364.00;;;34.60;29.53
21547;BME280;41275;51.912;4.388;2023-08-21T12:40:54;102378.06;;;35.73;27.64
21547;BME280;41275;51.912;4.388;2023-08-21T12:46:15;102383.50;;;36.28;26.75
21547;BME280;41275;51.912;4.388;2023-08-21T12:51:37;102368.06;;;36.46;26.82
21547;BME280;41275;51.912;4.388;2023-08-21T12:56:58;102355.19;;;37.00;26.11
21547;BME280;41275;51.912;4.388;2023-08-21T13:02:19;102347.56;;;37.80;25.16
21547;BME280;41275;51.912;4.388;2023-08-21T13:07:41;102346.66;;;38.02;23.67
21547;BME280;41275;51.912;4.388;2023-08-21T13:13:02;102339.56;;;38.42;24.20
21547;BME280;41275;51.912;4.388;2023-08-21T13:18:24;102350.72;;;37.78;24.68
21547;BME280;41275;51.912;4.388;2023-08-21T13:23:45;102342.63;;;37.96;24.58
21547;BME280;41275;51.912;4.388;2023-08-21T13:29:06;102351.53;;;38.13;24.32
21547;BME280;41275;51.912;4.388;2023-08-21T13:34:28;102355.31;;;38.83;23.61
21547;BME280;41275;51.912;4.388;2023-08-21T13:39:49;102340.34;;;38.02;24.45
21547;BME280;41275;51.912;4.388;2023-08-21T13:45:13;102353.44;;;37.75;24.46
21547;BME280;41275;51.912;4.388;2023-08-21T13:50:34;102347.28;;;38.70;23.10
21547;BME280;41275;51.912;4.388;2023-08-21T13:55:56;102340.44;;;39.05;22.62
21547;BME280;41275;51.912;4.388;2023-08-21T14:01:17;102345.75;;;38.28;23.35
21547;BME280;41275;51.912;4.388;2023-08-21T14:06:38;102346.88;;;38.24;23.35
21547;BME280;41275;51.912;4.388;2023-08-21T14:11:59;102335.16;;;38.86;23.26
21547;BME280;41275;51.912;4.388;2023-08-21T14:17:21;102335.03;;;37.86;24.24
21547;BME280;41275;51.912;4.388;2023-08-21T14:22:42;102321.63;;;38.25;23.82
21547;BME280;41275;51.912;4.388;2023-08-21T14:28:03;102310.09;;;38.61;23.13
21547;BME280;41275;51.912;4.388;2023-08-21T14:33:24;102301.31;;;39.14;23.33
21547;BME280;41275;51.912;4.388;2023-08-21T14:38:46;102300.72;;;39.52;22.48
21547;BME280;41275;51.912;4.388;2023-08-21T14:44:07;102300.16;;;39.15;23.12
21547;BME280;41275;51.912;4.388;2023-08-21T14:49:28;102286.41;;;39.36;22.77
21547;BME280;41275;51.912;4.388;2023-08-21T14:54:53;102277.47;;;38.84;23.02
21547;BME280;41275;51.912;4.388;2023-08-21T15:00:14;102271.81;;;38.73;23.43
21547;BME280;41275;51.912;4.388;2023-08-21T15:05:37;102262.06;;;40.45;21.81
21547;BME280;41275;51.912;4.388;2023-08-21T15:10:59;102275.78;;;41.10;20.77
21547;BME280;41275;51.912;4.388;2023-08-21T15:16:20;102261.84;;;41.28;20.30
21547;BME280;41275;51.912;4.388;2023-08-21T15:21:41;102247.38;;;40.48;20.77
21547;BME280;41275;51.912;4.388;2023-08-21T15:27:02;102252.34;;;41.18;19.96
21547;BME280;41275;51.912;4.388;2023-08-21T15:32:24;102262.34;;;40.90;20.38
21547;BME280;41275;51.912;4.388;2023-08-21T15:37:45;102262.06;;;40.56;20.21
21547;BME280;41275;51.912;4.388;2023-08-21T15:43:07;102253.75;;;40.13;20.57
21547;BME280;41275;51.912;4.388;2023-08-21T15:48:28;102256.91;;;40.33;20.77
21547;BME280;41275;51.912;4.388;2023-08-21T15:53:49;102239.94;;;37.50;22.98
21547;BME280;41275;51.912;4.388;2023-08-21T15:59:10;102241.31;;;35.42;25.17
21547;BME280;41275;51.912;4.388;2023-08-21T16:04:32;102241.44;;;33.84;26.74
21547;BME280;41275;51.912;4.388;2023-08-21T16:09:53;102239.78;;;32.86;27.92
21547;BME280;41275;51.912;4.388;2023-08-21T16:15:14;102240.09;;;32.23;28.86
21547;BME280;41275;51.912;4.388;2023-08-21T16:20:36;102221.44;;;31.92;29.65
21547;BME280;41275;51.912;4.388;2023-08-21T16:25:57;102223.03;;;31.93;29.55
21547;BME280;41275;51.912;4.388;2023-08-21T16:31:18;102222.59;;;31.70;30.54
21547;BME280;41275;51.912;4.388;2023-08-21T16:36:40;102214.94;;;31.43;30.40
21547;BME280;41275;51.912;4.388;2023-08-21T16:42:01;102219.63;;;31.21;30.70
21547;BME280;41275;51.912;4.388;2023-08-21T16:47:22;102208.00;;;31.24;30.55
21547;BME280;41275;51.912;4.388;2023-08-21T16:52:44;102218.44;;;31.31;30.49
21547;BME280;41275;51.912;4.388;2023-08-21T16:58:05;102204.66;;;31.19;31.00
21547;BME280;41275;51.912;4.388;2023-08-21T17:03:27;102210.91;;;32.52;30.05
21547;BME280;41275;51.912;4.388;2023-08-21T17:08:48;102217.78;;;35.06;27.00
21547;BME280;41275;51.912;4.388;2023-08-21T17:14:09;102202.28;;;37.04;25.31
21547;BME280;41275;51.912;4.388;2023-08-21T17:19:30;102197.94;;;38.19;24.73
21547;BME280;41275;51.912;4.388;2023-08-21T17:24:52;102201.34;;;38.49;23.37
21547;BME280;41275;51.912;4.388;2023-08-21T17:30:13;102195.41;;;38.51;23.73
21547;BME280;41275;51.912;4.388;2023-08-21T17:35:34;102189.56;;;38.67;23.77
21547;BME280;41275;51.912;4.388;2023-08-21T17:40:56;102188.19;;;38.36;23.35
21547;BME280;41275;51.912;4.388;2023-08-21T17:46:17;102183.44;;;38.33;23.52
21547;BME280;41275;51.912;4.388;2023-08-21T17:51:38;102187.31;;;38.87;23.21
21547;BME280;41275;51.912;4.388;2023-08-21T17:57:15;102187.19;;;38.65;22.74
21547;BME280;41275;51.912;4.388;2023-08-21T18:02:36;102191.03;;;38.43;23.36
21547;BME280;41275;51.912;4.388;2023-08-21T18:07:57;102186.72;;;37.97;23.22
21547;BME280;41275;51.912;4.388;2023-08-21T18:13:19;102190.69;;;37.25;23.75
21547;BME280;41275;51.912;4.388;2023-08-21T18:18:40;102193.56;;;34.60;26.99
21547;BME280;41275;51.912;4.388;2023-08-21T18:24:03;102189.75;;;32.77;29.41
21547;BME280;41275;51.912;4.388;2023-08-21T18:29:24;102192.25;;;31.96;30.32
21547;BME280;41275;51.912;4.388;2023-08-21T18:34:46;102199.94;;;31.07;32.52
21547;BME280;41275;51.912;4.388;2023-08-21T18:40:07;102191.00;;;30.39;33.52
21547;BME280;41275;51.912;4.388;2023-08-21T18:45:29;102187.44;;;29.91;34.33
21547;BME280;41275;51.912;4.388;2023-08-21T18:50:50;102189.88;;;29.58;34.62
21547;BME280;41275;51.912;4.388;2023-08-21T18:56:11;102192.75;;;29.27;35.64
21547;BME280;41275;51.912;4.388;2023-08-21T19:01:32;102201.22;;;28.99;35.82
21547;BME280;41275;51.912;4.388;2023-08-21T19:06:53;102204.50;;;28.70;35.69
21547;BME280;41275;51.912;4.388;2023-08-21T19:12:15;102206.25;;;28.57;35.97
21547;BME280;41275;51.912;4.388;2023-08-21T19:17:37;102199.66;;;28.58;35.73
21547;BME280;41275;51.912;4.388;2023-08-21T19:22:58;102202.06;;;28.60;35.74
21547;BME280;41275;51.912;4.388;2023-08-21T19:28:20;102200.81;;;28.35;36.04
21547;BME280;41275;51.912;4.388;2023-08-21T19:33:41;102214.75;;;28.33;36.76
21547;BME280;41275;51.912;4.388;2023-08-21T19:39:02;102206.09;;;28.31;37.02
21547;BME280;41275;51.912;4.388;2023-08-21T19:44:27;102203.00;;;28.24;37.50
21547;BME280;41275;51.912;4.388;2023-08-21T19:49:49;102203.59;;;28.12;37.56
21547;BME280;41275;51.912;4.388;2023-08-21T19:55:10;102218.28;;;28.03;38.16
21547;BME280;41275;51.912;4.388;2023-08-21T20:00:32;102212.16;;;27.97;38.23
21547;BME280;41275;51.912;4.388;2023-08-21T20:06:00;102209.38;;;27.88;40.08
21547;BME280;41275;51.912;4.388;2023-08-21T20:11:23;102207.88;;;27.82;41.34
21547;BME280;41275;51.912;4.388;2023-08-21T20:16:44;102208.81;;;27.78;41.60
21547;BME280;41275;51.912;4.388;2023-08-21T20:22:07;102206.97;;;27.87;40.02
21547;BME280;41275;51.912;4.388;2023-08-21T20:27:28;102198.38;;;27.71;39.98
21547;BME280;41275;51.912;4.388;2023-08-21T20:32:50;102206.75;;;27.75;40.50
21547;BME280;41275;51.912;4.388;2023-08-21T20:38:11;102196.41;;;27.85;40.31
21547;BME280;41275;51.912;4.388;2023-08-21T20:43:32;102196.28;;;27.91;41.05
21547;BME280;41275;51.912;4.388;2023-08-21T20:48:54;102179.44;;;27.88;40.72
21547;BME280;41275;51.912;4.388;2023-08-21T20:54:15;102185.22;;;27.87;40.71
21547;BME280;41275;51.912;4.388;2023-08-21T20:59:37;102189.69;;;27.83;40.79
21547;BME280;41275;51.912;4.388;2023-08-21T21:04:58;102189.59;;;27.74;41.94
21547;BME280;41275;51.912;4.388;2023-08-21T21:10:19;102183.06;;;27.75;42.50
21547;BME280;41275;51.912;4.388;2023-08-21T21:15:40;102189.78;;;27.78;42.67
21547;BME280;41275;51.912;4.388;2023-08-21T21:21:01;102196.44;;;27.72;43.20
21547;BME280;41275;51.912;4.388;2023-08-21T21:26:23;102198.97;;;27.68;43.61
21547;BME280;41275;51.912;4.388;2023-08-21T21:31:44;102191.84;;;27.58;43.73
21547;BME280;41275;51.912;4.388;2023-08-21T21:37:05;102196.44;;;27.49;44.26
21547;BME280;41275;51.912;4.388;2023-08-21T21:42:26;102198.72;;;27.56;44.49
21547;BME280;41275;51.912;4.388;2023-08-21T21:47:48;102197.81;;;27.60;44.46
21547;BME280;41275;51.912;4.388;2023-08-21T21:53:10;102201.00;;;27.62;44.05
21547;BME280;41275;51.912;4.388;2023-08-21T21:58:31;102200.31;;;27.57;43.80
21547;BME280;41275;51.912;4.388;2023-08-21T22:03:53;102197.22;;;27.50;44.14
21547;BME280;41275;51.912;4.388;2023-08-21T22:09:14;102200.56;;;27.47;44.07
21547;BME280;41275;51.912;4.388;2023-08-21T22:14:35;102201.75;;;27.32;43.54
21547;BME280;41275;51.912;4.388;2023-08-21T22:19:57;102209.50;;;27.25;43.37
21547;BME280;41275;51.912;4.388;2023-08-21T22:25:18;102192.19;;;27.21;43.42
21547;BME280;41275;51.912;4.388;2023-08-21T22:30:39;102178.91;;;27.19;43.79
21547;BME280;41275;51.912;4.388;2023-08-21T22:36:00;102162.72;;;27.14;43.80
21547;BME280;41275;51.912;4.388;2023-08-21T22:41:21;102148.28;;;27.27;43.75
21547;BME280;41275;51.912;4.388;2023-08-21T22:46:43;102171.13;;;27.26;43.70
21547;BME280;41275;51.912;4.388;2023-08-21T22:52:04;102162.41;;;27.15;43.73
21547;BME280;41275;51.912;4.388;2023-08-21T22:57:25;102159.53;;;27.12;43.77
21547;BME280;41275;51.912;4.388;2023-08-21T23:02:46;102153.44;;;27.15;44.40
21547;BME280;41275;51.912;4.388;2023-08-21T23:08:07;102142.03;;;27.27;43.81
21547;BME280;41275;51.912;4.388;2023-08-21T23:13:29;102127.72;;;27.35;43.66
21547;BME280;41275;51.912;4.388;2023-08-21T23:18:50;102120.25;;;27.40;43.43
21547;BME280;41275;51.912;4.388;2023-08-21T23:24:11;102103.94;;;27.40;43.07
21547;BME280;41275;51.912;4.388;2023-08-21T23:29:33;102104.94;;;27.45;42.22
21547;BME280;41275;51.912;4.388;2023-08-21T23:34:54;102111.09;;;27.36;42.19
21547;BME280;41275;51.912;4.388;2023-08-21T23:40:15;102114.19;;;27.21;42.08
21547;BME280;41275;51.912;4.388;2023-08-21T23:45:37;102111.28;;;27.04;42.00
21547;BME280;41275;51.912;4.388;2023-08-21T23:50:58;102112.34;;;26.94;42.31
21547;BME280;41275;51.912;4.388;2023-08-21T23:56:19;102105.59;;;26.91;42.46
